sensor_id;sensor_type;location;lat;lon;timestamp;pressure;altitude;pressure_sealevel;temperature;humidity
79707;BME280;69200;53.612;-2.416;2023-09-12T00:01:28;99629.69;;;15.64;98.12
79707;BME280;69200;53.612;-2.416;2023-09-12T00:03:58;99621.75;;;15.53;97.82
79707;BME280;69200;53.612;-2.416;2023-09-12T00:06:23;99632.91;;;15.72;98.58
79707;BME280;69200;53.612;-2.416;2023-09-12T00:08:49;99630.69;;;15.89;95.97
79707;BME280;69200;53.612;-2.416;2023-09-12T00:11:14;99631.22;;;15.91;95.49
79707;BME280;69200;53.612;-2.416;2023-09-12T00:13:40;99637.84;;;15.75;95.65
79707;BME280;69200;53.612;-2.416;2023-09-12T00:16:06;99631.44;;;15.94;95.64
79707;BME280;69200;53.612;-2.416;2023-09-12T00:18:34;99628.03;;;16.18;93.16
79707;BME280;69200;53.612;-2.416;2023-09-12T00:21:00;99632.28;;;15.95;93.02
79707;BME280;69200;53.612;-2.416;2023-09-12T00:23:26;99630.84;;;16.08;92.26
79707;BME280;69200;53.612;-2.416;2023-09-12T00:25:51;99626.47;;;16.07;92.83
79707;BME280;69200;53.612;-2.416;2023-09-12T00:28:18;99628.56;;;16.20;91.37
79707;BME280;69200;53.612;-2.416;2023-09-12T00:30:43;99621.97;;;15.77;92.06
79707;BME280;69200;53.612;-2.416;2023-09-12T00:33:08;99631.03;;;15.62;93.31
79707;BME280;69200;53.612;-2.416;2023-09-12T00:35:34;99617.03;;;15.79;93.55
79707;BME280;69200;53.612;-2.416;2023-09-12T00:37:59;99614.34;;;15.53;92.26
79707;BME280;69200;53.612;-2.416;2023-09-12T00:40:25;99611.13;;;15.31;94.68
79707;BME280;69200;53.612;-2.416;2023-09-12T00:42:50;99619.63;;;15.29;93.82
79707;BME280;69200;53.612;-2.416;2023-09-12T00:45:16;99622.38;;;15.24;94.10
79707;BME280;69200;53.612;-2.416;2023-09-12T00:47:41;99617.38;;;15.47;95.26
79707;BME280;69200;53.612;-2.416;2023-09-12T00:50:08;99619.53;;;15.55;93.75
79707;BME280;69200;53.612;-2.416;2023-09-12T00:52:34;99621.00;;;15.32;94.65
79707;BME280;69200;53.612;-2.416;2023-09-12T00:55:02;99610.56;;;15.39;95.55
79707;BME280;69200;53.612;-2.416;2023-09-12T00:57:28;99610.81;;;15.48;94.23
79707;BME280;69200;53.612;-2.416;2023-09-12T00:59:54;99615.97;;;15.59;94.42
79707;BME280;69200;53.612;-2.416;2023-09-12T01:02:20;99616.03;;;15.49;94.29
79707;BME280;69200;53.612;-2.416;2023-09-12T01:04:47;99624.19;;;15.59;94.81
79707;BME280;69200;53.612;-2.416;2023-09-12T01:07:12;99616.81;;;15.60;94.34
79707;BME280;69200;53.612;-2.416;2023-09-12T01:09:38;99607.47;;;15.76;93.21
79707;BME280;69200;53.612;-2.416;2023-09-12T01:12:04;99614.56;;;15.82;93.66
79707;BME280;69200;53.612;-2.416;2023-09-12T01:14:30;99615.09;;;15.79;93.28
79707;BME280;69200;53.612;-2.416;2023-09-12T01:16:56;99611.28;;;15.80;93.84
79707;BME280;69200;53.612;-2.416;2023-09-12T01:19:23;99604.16;;;15.84;92.72
79707;BME280;69200;53.612;-2.416;2023-09-12T01:27:30;99614.03;;;15.80;93.70
79707;BME280;69200;53.612;-2.416;2023-09-12T01:30:00;99609.97;;;15.73;93.66
79707;BME280;69200;53.612;-2.416;2023-09-12T01:32:26;99611.88;;;15.72;93.84
79707;BME280;69200;53.612;-2.416;2023-09-12T01:34:52;99607.25;;;15.62;93.21
79707;BME280;69200;53.612;-2.416;2023-09-12T01:37:17;99613.00;;;15.51;92.60
79707;BME280;69200;53.612;-2.416;2023-09-12T01:39:43;99615.28;;;15.18;94.29
79707;BME280;69200;53.612;-2.416;2023-09-12T01:42:11;99608.97;;;15.23;95.13
79707;BME280;69200;53.612;-2.416;2023-09-12T01:44:39;99606.00;;;15.19;95.14
79707;BME280;69200;53.612;-2.416;2023-09-12T01:47:05;99603.84;;;14.86;95.48
79707;BME280;69200;53.612;-2.416;2023-09-12T01:49:32;99605.50;;;14.87;95.64
79707;BME280;69200;53.612;-2.416;2023-09-12T01:51:59;99605.19;;;14.83;96.32
79707;BME280;69200;53.612;-2.416;2023-09-12T01:54:26;99599.75;;;14.63;97.13
79707;BME280;69200;53.612;-2.416;2023-09-12T01:56:53;99599.22;;;14.71;97.96
79707;BME280;69200;53.612;-2.416;2023-09-12T01:59:20;99609.59;;;14.69;97.71
79707;BME280;69200;53.612;-2.416;2023-09-12T02:01:46;99612.03;;;14.75;97.95
79707;BME280;69200;53.612;-2.416;2023-09-12T02:04:11;99602.47;;;14.58;97.02
79707;BME280;69200;53.612;-2.416;2023-09-12T02:06:36;99621.78;;;14.15;95.80
79707;BME280;69200;53.612;-2.416;2023-09-12T02:09:02;99625.84;;;13.97;97.10
79707;BME280;69200;53.612;-2.416;2023-09-12T02:11:27;99624.22;;;13.96;96.71
79707;BME280;69200;53.612;-2.416;2023-09-12T02:13:53;99622.44;;;13.70;95.45
79707;BME280;69200;53.612;-2.416;2023-09-12T02:16:18;99624.00;;;13.51;94.92
79707;BME280;69200;53.612;-2.416;2023-09-12T02:18:44;99623.06;;;13.30;95.11
79707;BME280;69200;53.612;-2.416;2023-09-12T02:21:09;99618.75;;;13.39;96.05
79707;BME280;69200;53.612;-2.416;2023-09-12T02:23:34;99620.94;;;13.37;96.04
79707;BME280;69200;53.612;-2.416;2023-09-12T02:26:00;99627.28;;;13.53;95.67
79707;BME280;69200;53.612;-2.416;2023-09-12T02:28:25;99621.75;;;13.37;96.23
79707;BME280;69200;53.612;-2.416;2023-09-12T02:30:51;99629.25;;;13.62;96.61
79707;BME280;69200;53.612;-2.416;2023-09-12T02:33:16;99624.94;;;13.77;96.35
79707;BME280;69200;53.612;-2.416;2023-09-12T02:35:42;99628.78;;;13.81;95.42
79707;BME280;69200;53.612;-2.416;2023-09-12T02:38:07;99629.59;;;13.86;93.74
79707;BME280;69200;53.612;-2.416;2023-09-12T02:40:33;99629.63;;;13.91;94.00
79707;BME280;69200;53.612;-2.416;2023-09-12T02:42:58;99627.16;;;13.80;93.20
79707;BME280;69200;53.612;-2.416;2023-09-12T02:45:23;99625.47;;;13.74;93.21
79707;BME280;69200;53.612;-2.416;2023-09-12T02:47:49;99628.75;;;13.76;94.45
79707;BME280;69200;53.612;-2.416;2023-09-12T02:50:14;99631.75;;;13.79;93.65
79707;BME280;69200;53.612;-2.416;2023-09-12T02:52:40;99620.00;;;13.68;94.21
79707;BME280;69200;53.612;-2.416;2023-09-12T02:55:05;99617.78;;;13.60;94.71
79707;BME280;69200;53.612;-2.416;2023-09-12T02:57:31;99622.28;;;13.34;94.93
79707;BME280;69200;53.612;-2.416;2023-09-12T02:59:56;99620.94;;;13.37;95.59
79707;BME280;69200;53.612;-2.416;2023-09-12T03:02:22;99614.06;;;13.29;96.21
79707;BME280;69200;53.612;-2.416;2023-09-12T03:04:47;99613.06;;;13.46;95.59
79707;BME280;69200;53.612;-2.416;2023-09-12T03:07:13;99616.38;;;13.48;95.73
79707;BME280;69200;53.612;-2.416;2023-09-12T03:09:38;99613.31;;;13.39;94.10
79707;BME280;69200;53.612;-2.416;2023-09-12T03:12:04;99612.22;;;13.35;94.74
79707;BME280;69200;53.612;-2.416;2023-09-12T03:14:30;99616.34;;;13.05;94.89
79707;BME280;69200;53.612;-2.416;2023-09-12T03:16:55;99603.31;;;13.12;94.26
79707;BME280;69200;53.612;-2.416;2023-09-12T03:19:21;99605.78;;;13.14;94.78
79707;BME280;69200;53.612;-2.416;2023-09-12T03:21:47;99603.56;;;13.06;93.79
79707;BME280;69200;53.612;-2.416;2023-09-12T03:24:12;99605.78;;;13.14;93.35
79707;BME280;69200;53.612;-2.416;2023-09-12T03:26:37;99614.63;;;13.26;94.57
79707;BME280;69200;53.612;-2.416;2023-09-12T03:29:04;99609.75;;;13.38;95.31
79707;BME280;69200;53.612;-2.416;2023-09-12T03:31:30;99615.81;;;13.46;93.14
79707;BME280;69200;53.612;-2.416;2023-09-12T03:33:56;99602.47;;;13.54;92.84
79707;BME280;69200;53.612;-2.416;2023-09-12T03:36:21;99604.38;;;13.49;92.69
79707;BME280;69200;53.612;-2.416;2023-09-12T03:38:46;99613.19;;;13.66;92.95
79707;BME280;69200;53.612;-2.416;2023-09-12T03:41:12;99620.53;;;13.70;93.40
79707;BME280;69200;53.612;-2.416;2023-09-12T03:43:37;99630.97;;;13.84;92.21
79707;BME280;69200;53.612;-2.416;2023-09-12T03:46:03;99629.38;;;13.88;91.73
79707;BME280;69200;53.612;-2.416;2023-09-12T03:48:29;99630.69;;;13.85;90.79
79707;BME280;69200;53.612;-2.416;2023-09-12T03:50:57;99635.34;;;13.95;92.31
79707;BME280;69200;53.612;-2.416;2023-09-12T03:53:22;99636.16;;;13.80;90.88
79707;BME280;69200;53.612;-2.416;2023-09-12T03:55:47;99623.53;;;13.69;92.06
79707;BME280;69200;53.612;-2.416;2023-09-12T03:58:13;99619.69;;;13.60;92.36
79707;BME280;69200;53.612;-2.416;2023-09-12T04:00:38;99630.28;;;13.51;93.39
79707;BME280;69200;53.612;-2.416;2023-09-12T04:03:04;99616.53;;;13.26;94.23
79707;BME280;69200;53.612;-2.416;2023-09-12T04:05:29;99623.66;;;13.32;95.43
79707;BME280;69200;53.612;-2.416;2023-09-12T04:07:54;99629.91;;;13.32;94.14
79707;BME280;69200;53.612;-2.416;2023-09-12T04:10:20;99625.28;;;13.38;95.33
79707;BME280;69200;53.612;-2.416;2023-09-12T04:12:46;99629.97;;;13.42;94.98
79707;BME280;69200;53.612;-2.416;2023-09-12T04:15:11;99617.66;;;13.35;94.80
79707;BME280;69200;53.612;-2.416;2023-09-12T04:17:36;99623.06;;;13.30;95.24
79707;BME280;69200;53.612;-2.416;2023-09-12T04:20:02;99620.66;;;13.33;95.17
79707;BME280;69200;53.612;-2.416;2023-09-12T04:22:29;99620.06;;;13.26;94.83
79707;BME280;69200;53.612;-2.416;2023-09-12T04:24:55;99619.72;;;13.18;94.97
79707;BME280;69200;53.612;-2.416;2023-09-12T04:27:20;99624.16;;;13.29;96.67
79707;BME280;69200;53.612;-2.416;2023-09-12T04:29:45;99618.16;;;13.27;96.67
79707;BME280;69200;53.612;-2.416;2023-09-12T04:32:11;99611.06;;;13.26;95.59
79707;BME280;69200;53.612;-2.416;2023-09-12T04:34:37;99611.78;;;13.11;96.10
79707;BME280;69200;53.612;-2.416;2023-09-12T04:37:02;99615.66;;;13.20;96.48
79707;BME280;69200;53.612;-2.416;2023-09-12T04:39:28;99616.78;;;13.24;96.17
79707;BME280;69200;53.612;-2.416;2023-09-12T04:41:55;99617.47;;;13.09;96.17
79707;BME280;69200;53.612;-2.416;2023-09-12T04:44:20;99621.53;;;13.07;95.88
79707;BME280;69200;53.612;-2.416;2023-09-12T04:46:45;99619.81;;;13.28;96.39
79707;BME280;69200;53.612;-2.416;2023-09-12T04:49:11;99627.28;;;13.10;94.53
79707;BME280;69200;53.612;-2.416;2023-09-12T04:51:37;99632.19;;;13.08;94.79
79707;BME280;69200;53.612;-2.416;2023-09-12T04:54:02;99628.03;;;13.38;94.52
79707;BME280;69200;53.612;-2.416;2023-09-12T04:56:28;99635.34;;;13.27;93.14
79707;BME280;69200;53.612;-2.416;2023-09-12T04:58:53;99632.66;;;13.32;91.67
79707;BME280;69200;53.612;-2.416;2023-09-12T05:01:19;99630.50;;;13.02;93.18
79707;BME280;69200;53.612;-2.416;2023-09-12T05:03:44;99625.75;;;13.20;93.64
79707;BME280;69200;53.612;-2.416;2023-09-12T05:06:10;99637.56;;;13.35;94.38
79707;BME280;69200;53.612;-2.416;2023-09-12T05:08:36;99638.69;;;13.44;92.90
79707;BME280;69200;53.612;-2.416;2023-09-12T05:11:01;99638.47;;;13.51;92.53
79707;BME280;69200;53.612;-2.416;2023-09-12T05:13:28;99634.59;;;13.42;93.54
79707;BME280;69200;53.612;-2.416;2023-09-12T05:15:53;99641.69;;;13.43;93.48
79707;BME280;69200;53.612;-2.416;2023-09-12T05:18:19;99644.47;;;13.48;92.61
79707;BME280;69200;53.612;-2.416;2023-09-12T05:20:44;99644.03;;;13.77;94.17
79707;BME280;69200;53.612;-2.416;2023-09-12T05:23:10;99652.75;;;13.79;93.28
79707;BME280;69200;53.612;-2.416;2023-09-12T05:25:36;99654.44;;;13.85;92.18
79707;BME280;69200;53.612;-2.416;2023-09-12T05:28:01;99656.88;;;13.81;91.81
79707;BME280;69200;53.612;-2.416;2023-09-12T05:30:26;99663.44;;;13.80;92.27
79707;BME280;69200;53.612;-2.416;2023-09-12T05:32:52;99663.38;;;13.75;92.13
79707;BME280;69200;53.612;-2.416;2023-09-12T05:35:18;99654.34;;;13.64;92.84
79707;BME280;69200;53.612;-2.416;2023-09-12T05:37:43;99650.38;;;13.35;94.27
79707;BME280;69200;53.612;-2.416;2023-09-12T05:40:08;99655.22;;;13.28;97.06
79707;BME280;69200;53.612;-2.416;2023-09-12T05:42:35;99656.84;;;13.24;95.60
79707;BME280;69200;53.612;-2.416;2023-09-12T05:45:00;99661.91;;;13.10;96.28
79707;BME280;69200;53.612;-2.416;2023-09-12T05:47:26;99664.53;;;13.37;96.56
79707;BME280;69200;53.612;-2.416;2023-09-12T05:49:51;99660.41;;;13.29;96.16
79707;BME280;69200;53.612;-2.416;2023-09-12T05:52:17;99670.03;;;13.47;96.88
79707;BME280;69200;53.612;-2.416;2023-09-12T05:54:42;99669.31;;;13.62;96.34
79707;BME280;69200;53.612;-2.416;2023-09-12T05:57:09;99671.72;;;13.48;95.88
79707;BME280;69200;53.612;-2.416;2023-09-12T05:59:38;99672.53;;;13.54;95.50
79707;BME280;69200;53.612;-2.416;2023-09-12T06:02:05;99674.81;;;13.67;95.41
79707;BME280;69200;53.612;-2.416;2023-09-12T06:04:34;99678.34;;;13.67;94.93
79707;BME280;69200;53.612;-2.416;2023-09-12T06:07:01;99677.03;;;13.28;95.49
79707;BME280;69200;53.612;-2.416;2023-09-12T06:09:26;99675.78;;;13.46;95.53
79707;BME280;69200;53.612;-2.416;2023-09-12T06:11:53;99683.50;;;13.59;95.46
79707;BME280;69200;53.612;-2.416;2023-09-12T06:14:18;99680.31;;;13.30;95.32
79707;BME280;69200;53.612;-2.416;2023-09-12T06:16:44;99684.25;;;13.54;95.93
79707;BME280;69200;53.612;-2.416;2023-09-12T06:19:09;99695.50;;;13.63;94.88
79707;BME280;69200;53.612;-2.416;2023-09-12T06:21:34;99695.56;;;13.73;95.22
79707;BME280;69200;53.612;-2.416;2023-09-12T06:24:29;99697.22;;;13.79;94.48
79707;BME280;69200;53.612;-2.416;2023-09-12T06:26:54;99700.53;;;13.81;94.37
79707;BME280;69200;53.612;-2.416;2023-09-12T06:29:20;99698.06;;;13.85;94.42
79707;BME280;69200;53.612;-2.416;2023-09-12T06:31:46;99685.16;;;13.70;94.22
79707;BME280;69200;53.612;-2.416;2023-09-12T06:34:11;99699.00;;;13.53;94.86
79707;BME280;69200;53.612;-2.416;2023-09-12T06:36:38;99706.97;;;13.65;94.47
79707;BME280;69200;53.612;-2.416;2023-09-12T06:39:04;99699.97;;;13.32;95.85
79707;BME280;69200;53.612;-2.416;2023-09-12T06:41:30;99704.28;;;13.28;95.39
79707;BME280;69200;53.612;-2.416;2023-09-12T06:43:55;99701.44;;;13.18;96.09
79707;BME280;69200;53.612;-2.416;2023-09-12T06:46:24;99695.50;;;13.21;96.90
79707;BME280;69200;53.612;-2.416;2023-09-12T06:48:49;99695.53;;;13.26;97.15
79707;BME280;69200;53.612;-2.416;2023-09-12T06:51:16;99705.75;;;13.40;95.99
79707;BME280;69200;53.612;-2.416;2023-09-12T06:53:41;99716.53;;;13.67;95.73
79707;BME280;69200;53.612;-2.416;2023-09-12T06:56:07;99719.84;;;13.75;95.05
79707;BME280;69200;53.612;-2.416;2023-09-12T06:58:32;99721.44;;;13.70;96.00
79707;BME280;69200;53.612;-2.416;2023-09-12T07:01:05;99723.13;;;13.77;95.52
79707;BME280;69200;53.612;-2.416;2023-09-12T07:03:35;99724.97;;;13.66;94.57
79707;BME280;69200;53.612;-2.416;2023-09-12T07:06:01;99730.94;;;13.58;94.65
79707;BME280;69200;53.612;-2.416;2023-09-12T07:08:29;99728.25;;;13.68;95.25
79707;BME280;69200;53.612;-2.416;2023-09-12T07:10:55;99720.06;;;13.68;96.52
79707;BME280;69200;53.612;-2.416;2023-09-12T07:13:22;99718.88;;;13.54;95.46
79707;BME280;69200;53.612;-2.416;2023-09-12T07:15:47;99726.28;;;13.58;95.56
79707;BME280;69200;53.612;-2.416;2023-09-12T07:18:12;99725.25;;;13.69;95.11
79707;BME280;69200;53.612;-2.416;2023-09-12T07:20:40;99724.69;;;13.67;95.08
79707;BME280;69200;53.612;-2.416;2023-09-12T07:23:06;99724.94;;;13.61;95.45
79707;BME280;69200;53.612;-2.416;2023-09-12T07:25:38;99727.38;;;13.57;95.49
79707;BME280;69200;53.612;-2.416;2023-09-12T07:28:05;99730.94;;;13.58;95.27
79707;BME280;69200;53.612;-2.416;2023-09-12T07:30:30;99730.16;;;13.67;96.60
79707;BME280;69200;53.612;-2.416;2023-09-12T07:32:56;99737.84;;;13.76;95.34
79707;BME280;69200;53.612;-2.416;2023-09-12T07:35:21;99737.06;;;13.80;95.64
79707;BME280;69200;53.612;-2.416;2023-09-12T07:37:49;99748.53;;;13.45;95.31
79707;BME280;69200;53.612;-2.416;2023-09-12T07:40:14;99731.03;;;13.36;95.63
79707;BME280;69200;53.612;-2.416;2023-09-12T07:42:40;99738.25;;;13.52;95.96
79707;BME280;69200;53.612;-2.416;2023-09-12T07:45:06;99740.91;;;13.42;96.49
79707;BME280;69200;53.612;-2.416;2023-09-12T07:47:32;99743.69;;;13.52;95.88
79707;BME280;69200;53.612;-2.416;2023-09-12T07:49:58;99749.84;;;13.75;94.35
79707;BME280;69200;53.612;-2.416;2023-09-12T07:52:28;99742.59;;;13.53;94.22
79707;BME280;69200;53.612;-2.416;2023-09-12T07:54:59;99758.75;;;13.60;94.82
79707;BME280;69200;53.612;-2.416;2023-09-12T07:57:29;99757.16;;;13.64;96.59
79707;BME280;69200;53.612;-2.416;2023-09-12T07:59:55;99767.06;;;13.80;95.81
79707;BME280;69200;53.612;-2.416;2023-09-12T08:02:20;99753.38;;;13.75;94.69
79707;BME280;69200;53.612;-2.416;2023-09-12T08:04:46;99766.69;;;13.66;95.00
79707;BME280;69200;53.612;-2.416;2023-09-12T08:07:12;99746.75;;;13.61;95.51
79707;BME280;69200;53.612;-2.416;2023-09-12T08:09:56;99763.31;;;13.54;95.97
79707;BME280;69200;53.612;-2.416;2023-09-12T08:12:25;99766.31;;;13.48;96.56
79707;BME280;69200;53.612;-2.416;2023-09-12T08:14:51;99770.19;;;13.57;95.74
79707;BME280;69200;53.612;-2.416;2023-09-12T08:17:16;99768.94;;;13.75;96.16
79707;BME280;69200;53.612;-2.416;2023-09-12T08:19:42;99770.88;;;13.84;95.11
79707;BME280;69200;53.612;-2.416;2023-09-12T08:22:08;99772.38;;;13.60;96.49
79707;BME280;69200;53.612;-2.416;2023-09-12T08:24:34;99782.59;;;13.80;96.01
79707;BME280;69200;53.612;-2.416;2023-09-12T08:27:00;99785.66;;;13.88;95.37
79707;BME280;69200;53.612;-2.416;2023-09-12T08:29:27;99781.63;;;14.01;94.85
79707;BME280;69200;53.612;-2.416;2023-09-12T08:31:52;99787.72;;;14.13;94.62
79707;BME280;69200;53.612;-2.416;2023-09-12T08:34:18;99790.50;;;14.28;94.56
79707;BME280;69200;53.612;-2.416;2023-09-12T08:36:44;99791.53;;;14.17;93.96
79707;BME280;69200;53.612;-2.416;2023-09-12T08:39:13;99794.63;;;14.36;94.30
79707;BME280;69200;53.612;-2.416;2023-09-12T08:41:39;99797.69;;;14.50;92.25
79707;BME280;69200;53.612;-2.416;2023-09-12T08:44:04;99808.91;;;14.48;92.22
79707;BME280;69200;53.612;-2.416;2023-09-12T08:46:31;99808.59;;;14.45;92.26
79707;BME280;69200;53.612;-2.416;2023-09-12T08:48:57;99813.16;;;14.34;92.32
79707;BME280;69200;53.612;-2.416;2023-09-12T08:51:25;99824.63;;;14.31;93.57
79707;BME280;69200;53.612;-2.416;2023-09-12T08:53:51;99820.03;;;14.42;91.99
79707;BME280;69200;53.612;-2.416;2023-09-12T08:56:17;99820.56;;;14.39;92.48
79707;BME280;69200;53.612;-2.416;2023-09-12T08:58:43;99819.94;;;14.26;92.97
79707;BME280;69200;53.612;-2.416;2023-09-12T09:01:12;99820.44;;;14.13;91.76
79707;BME280;69200;53.612;-2.416;2023-09-12T09:03:39;99819.22;;;13.94;93.72
79707;BME280;69200;53.612;-2.416;2023-09-12T09:06:08;99828.75;;;13.91;93.43
79707;BME280;69200;53.612;-2.416;2023-09-12T09:08:34;99819.94;;;14.21;93.10
79707;BME280;69200;53.612;-2.416;2023-09-12T09:11:00;99835.19;;;14.12;92.65
79707;BME280;69200;53.612;-2.416;2023-09-12T09:13:31;99829.09;;;14.00;92.63
79707;BME280;69200;53.612;-2.416;2023-09-12T09:16:16;99827.50;;;14.09;92.92
79707;BME280;69200;53.612;-2.416;2023-09-12T09:19:00;99829.13;;;14.05;93.41
79707;BME280;69200;53.612;-2.416;2023-09-12T09:21:31;99829.16;;;14.10;92.62
79707;BME280;69200;53.612;-2.416;2023-09-12T09:24:02;99832.91;;;13.99;92.71
79707;BME280;69200;53.612;-2.416;2023-09-12T09:29:13;99833.63;;;13.84;93.67
79707;BME280;69200;53.612;-2.416;2023-09-12T09:31:43;99836.00;;;14.13;93.49
79707;BME280;69200;53.612;-2.416;2023-09-12T09:34:19;99833.50;;;14.11;92.31
79707;BME280;69200;53.612;-2.416;2023-09-12T09:36:49;99828.00;;;14.01;92.80
79707;BME280;69200;53.612;-2.416;2023-09-12T09:39:19;99827.19;;;14.00;93.09
79707;BME280;69200;53.612;-2.416;2023-09-12T09:41:49;99830.59;;;14.23;91.11
79707;BME280;69200;53.612;-2.416;2023-09-12T09:44:15;99832.47;;;14.17;91.59
79707;BME280;69200;53.612;-2.416;2023-09-12T09:46:43;99838.09;;;14.00;93.20
79707;BME280;69200;53.612;-2.416;2023-09-12T09:49:15;99827.94;;;13.91;93.12
79707;BME280;69200;53.612;-2.416;2023-09-12T09:51:41;99825.94;;;14.23;93.27
79707;BME280;69200;53.612;-2.416;2023-09-12T09:54:08;99821.72;;;14.48;92.77
79707;BME280;69200;53.612;-2.416;2023-09-12T09:56:54;99830.38;;;14.92;91.08
79707;BME280;69200;53.612;-2.416;2023-09-12T09:59:26;99836.69;;;15.08;88.95
79707;BME280;69200;53.612;-2.416;2023-09-12T10:01:56;99844.63;;;15.20;88.56
79707;BME280;69200;53.612;-2.416;2023-09-12T10:04:23;99843.25;;;15.17;88.28
79707;BME280;69200;53.612;-2.416;2023-09-12T10:06:49;99850.06;;;15.09;87.55
79707;BME280;69200;53.612;-2.416;2023-09-12T10:09:15;99852.25;;;15.13;88.63
79707;BME280;69200;53.612;-2.416;2023-09-12T10:11:43;99858.88;;;15.42;87.58
79707;BME280;69200;53.612;-2.416;2023-09-12T10:14:12;99855.81;;;15.23;87.85
79707;BME280;69200;53.612;-2.416;2023-09-12T10:16:50;99851.75;;;15.41;86.67
79707;BME280;69200;53.612;-2.416;2023-09-12T10:19:18;99864.84;;;15.19;86.36
79707;BME280;69200;53.612;-2.416;2023-09-12T10:24:36;99859.03;;;14.95;87.00
79707;BME280;69200;53.612;-2.416;2023-09-12T10:27:05;99866.13;;;14.86;86.41
79707;BME280;69200;53.612;-2.416;2023-09-12T10:29:31;99868.34;;;14.94;86.03
79707;BME280;69200;53.612;-2.416;2023-09-12T10:31:56;99865.59;;;14.99;86.66
79707;BME280;69200;53.612;-2.416;2023-09-12T10:34:24;99856.34;;;15.10;86.40
79707;BME280;69200;53.612;-2.416;2023-09-12T10:36:50;99859.13;;;15.30;87.45
79707;BME280;69200;53.612;-2.416;2023-09-12T10:39:19;99868.97;;;15.26;83.86
79707;BME280;69200;53.612;-2.416;2023-09-12T10:41:46;99863.78;;;15.25;84.88
79707;BME280;69200;53.612;-2.416;2023-09-12T10:44:15;99858.56;;;15.38;83.90
79707;BME280;69200;53.612;-2.416;2023-09-12T10:46:41;99869.25;;;15.45;85.08
79707;BME280;69200;53.612;-2.416;2023-09-12T10:49:08;99852.03;;;15.50;84.60
79707;BME280;69200;53.612;-2.416;2023-09-12T10:51:38;99860.50;;;15.53;85.09
79707;BME280;69200;53.612;-2.416;2023-09-12T10:54:04;99861.09;;;15.71;83.51
79707;BME280;69200;53.612;-2.416;2023-09-12T10:56:30;99852.84;;;15.55;83.11
79707;BME280;69200;53.612;-2.416;2023-09-12T11:01:39;99863.78;;;15.45;83.54
79707;BME280;69200;53.612;-2.416;2023-09-12T11:06:49;99857.50;;;15.45;83.56
79707;BME280;69200;53.612;-2.416;2023-09-12T11:11:41;99869.19;;;15.15;84.86
79707;BME280;69200;53.612;-2.416;2023-09-12T11:14:08;99877.41;;;15.09;83.27
79707;BME280;69200;53.612;-2.416;2023-09-12T11:16:34;99872.00;;;15.40;83.63
79707;BME280;69200;53.612;-2.416;2023-09-12T11:21:54;99878.28;;;15.41;82.16
79707;BME280;69200;53.612;-2.416;2023-09-12T11:24:21;99874.41;;;15.31;81.49
79707;BME280;69200;53.612;-2.416;2023-09-12T11:26:59;99877.47;;;15.40;80.89
79707;BME280;69200;53.612;-2.416;2023-09-12T11:29:35;99886.97;;;15.22;81.99
79707;BME280;69200;53.612;-2.416;2023-09-12T11:32:01;99889.44;;;15.08;81.26
79707;BME280;69200;53.612;-2.416;2023-09-12T11:34:40;99882.09;;;15.24;81.61
79707;BME280;69200;53.612;-2.416;2023-09-12T11:37:05;99885.09;;;15.28;81.09
79707;BME280;69200;53.612;-2.416;2023-09-12T11:39:36;99884.53;;;15.31;81.88
79707;BME280;69200;53.612;-2.416;2023-09-12T11:42:03;99889.75;;;15.37;81.78
79707;BME280;69200;53.612;-2.416;2023-09-12T11:44:30;99891.47;;;15.69;81.26
79707;BME280;69200;53.612;-2.416;2023-09-12T11:46:57;99886.28;;;15.73;81.42
79707;BME280;69200;53.612;-2.416;2023-09-12T11:49:35;99888.47;;;15.81;80.81
79707;BME280;69200;53.612;-2.416;2023-09-12T11:52:02;99891.19;;;15.91;80.12
79707;BME280;69200;53.612;-2.416;2023-09-12T11:54:29;99890.91;;;15.62;80.52
79707;BME280;69200;53.612;-2.416;2023-09-12T11:56:56;99895.22;;;15.37;81.06
79707;BME280;69200;53.612;-2.416;2023-09-12T11:59:29;99899.34;;;15.50;80.57
79707;BME280;69200;53.612;-2.416;2023-09-12T12:01:55;99916.53;;;15.30;80.08
79707;BME280;69200;53.612;-2.416;2023-09-12T12:04:22;99912.69;;;15.31;81.22
79707;BME280;69200;53.612;-2.416;2023-09-12T12:06:49;99905.31;;;15.27;80.10
79707;BME280;69200;53.612;-2.416;2023-09-12T12:09:16;99908.63;;;15.44;79.92
79707;BME280;69200;53.612;-2.416;2023-09-12T12:11:44;99911.38;;;15.49;79.81
79707;BME280;69200;53.612;-2.416;2023-09-12T12:14:12;99914.91;;;15.34;78.60
79707;BME280;69200;53.612;-2.416;2023-09-12T12:16:39;99916.59;;;15.51;78.51
79707;BME280;69200;53.612;-2.416;2023-09-12T12:19:04;99912.22;;;15.50;78.22
79707;BME280;69200;53.612;-2.416;2023-09-12T12:21:30;99916.56;;;15.41;78.75
79707;BME280;69200;53.612;-2.416;2023-09-12T12:24:03;99917.66;;;15.45;78.26
79707;BME280;69200;53.612;-2.416;2023-09-12T12:26:30;99930.78;;;15.32;77.64
79707;BME280;69200;53.612;-2.416;2023-09-12T12:28:55;99927.41;;;15.10;77.46
79707;BME280;69200;53.612;-2.416;2023-09-12T12:31:22;99924.19;;;15.38;77.10
79707;BME280;69200;53.612;-2.416;2023-09-12T12:33:50;99929.19;;;15.57;75.85
79707;BME280;69200;53.612;-2.416;2023-09-12T12:36:17;99928.91;;;15.58;75.23
79707;BME280;69200;53.612;-2.416;2023-09-12T12:38:45;99922.63;;;15.58;74.41
79707;BME280;69200;53.612;-2.416;2023-09-12T12:41:11;99927.78;;;15.54;74.05
79707;BME280;69200;53.612;-2.416;2023-09-12T12:43:40;99923.13;;;15.45;74.34
79707;BME280;69200;53.612;-2.416;2023-09-12T12:46:12;99913.06;;;15.76;72.76
79707;BME280;69200;53.612;-2.416;2023-09-12T12:48:38;99918.25;;;15.87;73.50
79707;BME280;69200;53.612;-2.416;2023-09-12T12:51:20;99917.72;;;15.95;72.75
79707;BME280;69200;53.612;-2.416;2023-09-12T12:53:49;99912.81;;;15.82;73.17
79707;BME280;69200;53.612;-2.416;2023-09-12T12:56:17;99916.91;;;15.80;73.02
79707;BME280;69200;53.612;-2.416;2023-09-12T12:58:57;99922.59;;;15.53;73.61
79707;BME280;69200;53.612;-2.416;2023-09-12T13:01:24;99924.84;;;15.91;73.42
79707;BME280;69200;53.612;-2.416;2023-09-12T13:03:50;99919.91;;;15.93;73.27
79707;BME280;69200;53.612;-2.416;2023-09-12T13:06:17;99918.53;;;16.01;73.04
79707;BME280;69200;53.612;-2.416;2023-09-12T13:08:44;99928.41;;;15.97;72.81
79707;BME280;69200;53.612;-2.416;2023-09-12T13:11:10;99931.41;;;15.95;74.49